باتنة, الجزائر

03:21 AM CET on أعس×س 21, 2014 (GMT +0100)
Mohamed Boudiaf | Change Station
CLOSE
Current Station
Airport
Location: Constantine,
Elevation: 2277 ft
Nearby Weather Stations

Elev 2277 ft 36.28 °N, 6.62 °E | Updated 21 minutes ago

Clear
صافية
70 °F
Feels Like 70 °F
N
0
ريح متغير ريح from شمال

هذا اليوم
High -- | Low -- °F
--% Chance of Precip.
Yesterday
High -- | Low -- °F
Precip. -- في
5:58 AM 7:17 PM
الهلال الأخير, 17% visible
الضغط 30.09 في
وضوح الرؤية -9999.0 أميال
سحابات
نقطة الندى 61 °F
الرطوبة 73%
Rainfall 0.00 في
عمق الثلج Not available.
الأشعة فوق البنفسجية Not available.
Pollen Not available.
جودة الهواء Not available.
Flu Activity Not available.
METAR DABC 210200Z 00000KT CAVOK 21/16 Q1019

More Conditions Fewer Conditions

الضغط 30.09 في
وضوح الرؤية -9999.0 أميال
سحابات
نقطة الندى 61 °F
الرطوبة 73%
Rainfall 0.00 في
عمق الثلج Not available.
الأشعة فوق البنفسجية Not available.
Pollen Not available.
جودة الهواء Not available.
Flu Activity Not available.
METAR DABC 210200Z 00000KT CAVOK 21/16 Q1019

More Conditions Fewer Conditions

10-Day Weather Forecast

Almanac

علم الفلك

Aug. 21, 2014 Rise Set
Actual Time 5:58 AM CET 7:17 PM CET
Civil Twilight 5:31 AM CET 7:43 PM CET
Nautical Twilight 4:59 AM CET 8:15 PM CET
Astronomical Twilight 4:26 AM CET 8:48 PM CET
قمر 2:18 AM CET 4:31 PM CET
Length Of Visible Light 14h 12m
طول الیوم
13h 19m
Tomorrow will be 2m 3s shorter.
الهلال الأخير, 17% of the Moon is Illuminated
Aug 20
الهلال الأخير
Aug 25
New
Sep 2
الربع الاول
Sep 8
بدر
Sep 15
الربع الآخر

Yesterday's Extremes

Country Highs Country Lows

Community

WunderPhotos

Upload Photos

1,745,851 photos uploaded!

WunderBlogs® & News

By Dr. Jeff Masters
Director of Meteorology, Weather Underground
By Kari Strenfel
Meteorologist, Weather Underground
By Christopher C. Burt
Weather Historian, Weather Underground
August 20, 2014
August 20, 2014
August 20, 2014

Nearby

جودة الهواء

Not available.

عمق الثلج

Not available.

Earthquake Activity

City Distance Mag. Time & Date
No recent earthquake activity has been reported nearby.
Minimum magnitude displayed is 2.5.

Coastal Water Temperatures

مكان درجات الحرارة
No Stations Reporting

Nearby Weather Stations